Аэропорт: Рощино. Тюмень

ICAO: USTR

METAR:
2021-01-20 04:30:00
USTR 200430Z 09006MPS CAVOK M19/M22 Q1016 R12/450257 R21/450160 NOSIG
METAR:
2021-01-20 01:42:00
TAF USTR 200142Z 2003/2103 09004G10MPS 9999 DRSN SCT020 FM200600 08005G12MPS 1200 SHSN BLSN BKN004 BKN020CB TEMPO 2006/2016 0400 +SHSN BLSN VV002 FM201600 08003G08MPS 4000 -SHSN BKN011 BKN020CB TEMPO 2016/2103 2100 -SHSN BKN007 BKN016CB BECMG 2023/2024 25003MPS